sensor_id;sensor_type;location;lat;lon;timestamp;temperature;humidity
47382;DHT22;33128;51.580;5.170;2024-03-02T00:00:22;11.60;99.90
47382;DHT22;33128;51.580;5.170;2024-03-02T00:02:49;11.70;99.90
47382;DHT22;33128;51.580;5.170;2024-03-02T00:05:16;11.50;99.90
47382;DHT22;33128;51.580;5.170;2024-03-02T00:07:43;11.60;99.90
47382;DHT22;33128;51.580;5.170;2024-03-02T00:10:14;11.60;99.90
47382;DHT22;33128;51.580;5.170;2024-03-02T00:12:48;11.70;99.90
47382;DHT22;33128;51.580;5.170;2024-03-02T00:18:34;11.70;99.90
47382;DHT22;33128;51.580;5.170;2024-03-02T00:21:01;11.80;99.90
47382;DHT22;33128;51.580;5.170;2024-03-02T00:23:31;11.80;99.90
47382;DHT22;33128;51.580;5.170;2024-03-02T00:26:00;11.90;99.90
47382;DHT22;33128;51.580;5.170;2024-03-02T00:28:44;12.00;99.90
47382;DHT22;33128;51.580;5.170;2024-03-02T00:31:12;12.00;99.90
47382;DHT22;33128;51.580;5.170;2024-03-02T00:33:41;12.10;99.90
47382;DHT22;33128;51.580;5.170;2024-03-02T00:36:08;12.00;99.90
47382;DHT22;33128;51.580;5.170;2024-03-02T00:38:34;12.00;99.90
47382;DHT22;33128;51.580;5.170;2024-03-02T00:41:07;12.10;99.90
47382;DHT22;33128;51.580;5.170;2024-03-02T00:44:01;12.10;99.90
47382;DHT22;33128;51.580;5.170;2024-03-02T00:46:36;12.10;99.90
47382;DHT22;33128;51.580;5.170;2024-03-02T00:49:04;12.10;99.90
47382;DHT22;33128;51.580;5.170;2024-03-02T00:51:32;12.10;99.90
47382;DHT22;33128;51.580;5.170;2024-03-02T00:54:00;12.10;99.90
47382;DHT22;33128;51.580;5.170;2024-03-02T00:56:29;12.00;99.90
47382;DHT22;33128;51.580;5.170;2024-03-02T00:58:58;12.10;99.90
47382;DHT22;33128;51.580;5.170;2024-03-02T01:01:24;12.20;99.90
47382;DHT22;33128;51.580;5.170;2024-03-02T01:03:50;12.10;99.90
47382;DHT22;33128;51.580;5.170;2024-03-02T01:06:16;12.10;99.90
47382;DHT22;33128;51.580;5.170;2024-03-02T01:08:42;12.20;99.90
47382;DHT22;33128;51.580;5.170;2024-03-02T01:11:08;12.20;99.90
47382;DHT22;33128;51.580;5.170;2024-03-02T01:13:34;12.20;99.90
47382;DHT22;33128;51.580;5.170;2024-03-02T01:16:00;12.20;99.90
47382;DHT22;33128;51.580;5.170;2024-03-02T01:18:25;12.20;99.90
47382;DHT22;33128;51.580;5.170;2024-03-02T01:20:54;12.10;99.90
47382;DHT22;33128;51.580;5.170;2024-03-02T01:23:23;12.10;99.90
47382;DHT22;33128;51.580;5.170;2024-03-02T01:25:49;12.20;99.90
47382;DHT22;33128;51.580;5.170;2024-03-02T01:28:15;12.20;99.90
47382;DHT22;33128;51.580;5.170;2024-03-02T01:30:41;12.20;99.90
47382;DHT22;33128;51.580;5.170;2024-03-02T01:33:09;12.20;99.90
47382;DHT22;33128;51.580;5.170;2024-03-02T01:35:35;12.10;99.90
47382;DHT22;33128;51.580;5.170;2024-03-02T01:38:07;12.20;99.90
47382;DHT22;33128;51.580;5.170;2024-03-02T01:40:36;12.20;99.90
47382;DHT22;33128;51.580;5.170;2024-03-02T01:43:03;12.20;99.90
47382;DHT22;33128;51.580;5.170;2024-03-02T01:45:29;12.20;99.90
47382;DHT22;33128;51.580;5.170;2024-03-02T01:47:55;12.20;99.90
47382;DHT22;33128;51.580;5.170;2024-03-02T01:50:33;12.20;99.90
47382;DHT22;33128;51.580;5.170;2024-03-02T01:52:59;12.20;99.90
47382;DHT22;33128;51.580;5.170;2024-03-02T01:55:25;12.20;99.90
47382;DHT22;33128;51.580;5.170;2024-03-02T01:57:52;12.20;99.90
47382;DHT22;33128;51.580;5.170;2024-03-02T02:00:19;12.10;99.90
47382;DHT22;33128;51.580;5.170;2024-03-02T02:02:45;12.10;99.90
47382;DHT22;33128;51.580;5.170;2024-03-02T02:05:11;12.10;99.90
47382;DHT22;33128;51.580;5.170;2024-03-02T02:07:37;12.10;99.90
47382;DHT22;33128;51.580;5.170;2024-03-02T02:10:03;12.10;99.90
47382;DHT22;33128;51.580;5.170;2024-03-02T02:12:29;12.10;99.90
47382;DHT22;33128;51.580;5.170;2024-03-02T02:14:58;12.10;99.90
47382;DHT22;33128;51.580;5.170;2024-03-02T02:17:23;12.10;99.90
47382;DHT22;33128;51.580;5.170;2024-03-02T02:19:49;12.10;99.90
47382;DHT22;33128;51.580;5.170;2024-03-02T02:22:14;12.10;99.90
47382;DHT22;33128;51.580;5.170;2024-03-02T02:24:41;12.10;99.90
47382;DHT22;33128;51.580;5.170;2024-03-02T02:27:07;12.10;99.90
47382;DHT22;33128;51.580;5.170;2024-03-02T02:29:33;12.10;99.90
47382;DHT22;33128;51.580;5.170;2024-03-02T02:31:58;12.00;99.90
47382;DHT22;33128;51.580;5.170;2024-03-02T02:34:27;12.10;99.90
47382;DHT22;33128;51.580;5.170;2024-03-02T02:36:53;12.00;99.90
47382;DHT22;33128;51.580;5.170;2024-03-02T02:39:20;12.10;99.90
47382;DHT22;33128;51.580;5.170;2024-03-02T02:41:46;12.10;99.90
47382;DHT22;33128;51.580;5.170;2024-03-02T02:44:12;12.10;99.90
47382;DHT22;33128;51.580;5.170;2024-03-02T02:46:39;12.00;99.90
47382;DHT22;33128;51.580;5.170;2024-03-02T02:49:04;12.00;99.90
47382;DHT22;33128;51.580;5.170;2024-03-02T02:51:30;12.00;99.90
47382;DHT22;33128;51.580;5.170;2024-03-02T02:53:56;12.00;99.90
47382;DHT22;33128;51.580;5.170;2024-03-02T02:56:21;12.00;99.90
47382;DHT22;33128;51.580;5.170;2024-03-02T02:58:47;12.00;99.90
47382;DHT22;33128;51.580;5.170;2024-03-02T03:01:13;12.00;99.90
47382;DHT22;33128;51.580;5.170;2024-03-02T03:03:38;12.00;99.90
47382;DHT22;33128;51.580;5.170;2024-03-02T03:06:04;12.00;99.90
47382;DHT22;33128;51.580;5.170;2024-03-02T03:08:29;12.10;99.90
47382;DHT22;33128;51.580;5.170;2024-03-02T03:10:55;12.00;99.90
47382;DHT22;33128;51.580;5.170;2024-03-02T03:13:21;12.00;99.90
47382;DHT22;33128;51.580;5.170;2024-03-02T03:15:46;12.00;99.90
47382;DHT22;33128;51.580;5.170;2024-03-02T03:18:12;12.10;99.90
47382;DHT22;33128;51.580;5.170;2024-03-02T03:20:37;12.10;99.90
47382;DHT22;33128;51.580;5.170;2024-03-02T03:23:03;12.10;99.90
47382;DHT22;33128;51.580;5.170;2024-03-02T03:25:30;12.10;99.90
47382;DHT22;33128;51.580;5.170;2024-03-02T03:27:55;12.10;99.90
47382;DHT22;33128;51.580;5.170;2024-03-02T03:30:21;12.10;99.90
47382;DHT22;33128;51.580;5.170;2024-03-02T03:32:47;12.10;99.90
47382;DHT22;33128;51.580;5.170;2024-03-02T03:35:13;12.00;99.90
47382;DHT22;33128;51.580;5.170;2024-03-02T03:37:40;12.00;99.90
47382;DHT22;33128;51.580;5.170;2024-03-02T03:40:06;12.00;99.90
47382;DHT22;33128;51.580;5.170;2024-03-02T03:42:38;12.00;99.90
47382;DHT22;33128;51.580;5.170;2024-03-02T03:45:05;12.00;99.90
47382;DHT22;33128;51.580;5.170;2024-03-02T03:47:33;12.00;99.90
47382;DHT22;33128;51.580;5.170;2024-03-02T03:49:59;12.00;99.90
47382;DHT22;33128;51.580;5.170;2024-03-02T03:52:27;12.00;99.90
47382;DHT22;33128;51.580;5.170;2024-03-02T03:54:53;12.00;99.90
47382;DHT22;33128;51.580;5.170;2024-03-02T03:57:19;12.00;99.90
47382;DHT22;33128;51.580;5.170;2024-03-02T03:59:44;11.90;99.90
47382;DHT22;33128;51.580;5.170;2024-03-02T04:02:11;12.00;99.90
47382;DHT22;33128;51.580;5.170;2024-03-02T04:04:38;12.00;99.90
47382;DHT22;33128;51.580;5.170;2024-03-02T04:07:03;12.00;99.90
47382;DHT22;33128;51.580;5.170;2024-03-02T04:09:29;11.90;99.90
47382;DHT22;33128;51.580;5.170;2024-03-02T04:11:55;11.90;99.90
47382;DHT22;33128;51.580;5.170;2024-03-02T04:14:20;12.00;99.90
47382;DHT22;33128;51.580;5.170;2024-03-02T04:16:49;12.00;99.90
47382;DHT22;33128;51.580;5.170;2024-03-02T04:19:14;11.90;99.90
47382;DHT22;33128;51.580;5.170;2024-03-02T04:21:42;12.00;99.90
47382;DHT22;33128;51.580;5.170;2024-03-02T04:24:08;12.00;99.90
47382;DHT22;33128;51.580;5.170;2024-03-02T04:26:36;12.00;99.90
47382;DHT22;33128;51.580;5.170;2024-03-02T04:29:02;12.00;99.90
47382;DHT22;33128;51.580;5.170;2024-03-02T04:31:27;12.00;99.90
47382;DHT22;33128;51.580;5.170;2024-03-02T04:33:53;12.00;99.90
47382;DHT22;33128;51.580;5.170;2024-03-02T04:36:19;12.00;99.90
47382;DHT22;33128;51.580;5.170;2024-03-02T04:38:45;12.00;99.90
47382;DHT22;33128;51.580;5.170;2024-03-02T04:41:11;12.00;99.90
47382;DHT22;33128;51.580;5.170;2024-03-02T04:43:36;11.90;99.90
47382;DHT22;33128;51.580;5.170;2024-03-02T04:46:02;11.90;99.90
47382;DHT22;33128;51.580;5.170;2024-03-02T04:48:27;11.90;99.90
47382;DHT22;33128;51.580;5.170;2024-03-02T04:50:53;11.90;99.90
47382;DHT22;33128;51.580;5.170;2024-03-02T04:53:19;11.90;99.90
47382;DHT22;33128;51.580;5.170;2024-03-02T04:55:44;11.90;99.90
47382;DHT22;33128;51.580;5.170;2024-03-02T04:58:39;11.90;99.90
47382;DHT22;33128;51.580;5.170;2024-03-02T05:01:05;11.80;99.90
47382;DHT22;33128;51.580;5.170;2024-03-02T05:03:33;11.90;99.90
47382;DHT22;33128;51.580;5.170;2024-03-02T05:06:00;11.80;99.90
47382;DHT22;33128;51.580;5.170;2024-03-02T05:08:25;11.90;99.90
47382;DHT22;33128;51.580;5.170;2024-03-02T05:10:51;11.80;99.90
47382;DHT22;33128;51.580;5.170;2024-03-02T05:13:16;11.80;99.90
47382;DHT22;33128;51.580;5.170;2024-03-02T05:15:46;11.80;99.90
47382;DHT22;33128;51.580;5.170;2024-03-02T05:18:12;11.80;99.90
47382;DHT22;33128;51.580;5.170;2024-03-02T05:20:37;11.80;99.90
47382;DHT22;33128;51.580;5.170;2024-03-02T05:23:03;11.80;99.90
47382;DHT22;33128;51.580;5.170;2024-03-02T05:25:28;11.80;99.90
47382;DHT22;33128;51.580;5.170;2024-03-02T05:27:54;11.80;99.90
47382;DHT22;33128;51.580;5.170;2024-03-02T05:30:20;11.80;99.90
47382;DHT22;33128;51.580;5.170;2024-03-02T05:32:45;11.80;99.90
47382;DHT22;33128;51.580;5.170;2024-03-02T05:35:14;11.80;99.90
47382;DHT22;33128;51.580;5.170;2024-03-02T05:37:39;11.80;99.90
47382;DHT22;33128;51.580;5.170;2024-03-02T05:40:05;11.80;99.90
47382;DHT22;33128;51.580;5.170;2024-03-02T05:42:31;11.70;99.90
47382;DHT22;33128;51.580;5.170;2024-03-02T05:44:57;11.70;99.90
47382;DHT22;33128;51.580;5.170;2024-03-02T05:47:22;11.70;99.90
47382;DHT22;33128;51.580;5.170;2024-03-02T05:49:48;11.70;99.90
47382;DHT22;33128;51.580;5.170;2024-03-02T05:52:13;11.70;99.90
47382;DHT22;33128;51.580;5.170;2024-03-02T05:54:39;11.70;99.90
47382;DHT22;33128;51.580;5.170;2024-03-02T05:57:05;11.70;99.90
47382;DHT22;33128;51.580;5.170;2024-03-02T05:59:51;11.70;99.90
47382;DHT22;33128;51.580;5.170;2024-03-02T06:02:17;11.70;99.90
47382;DHT22;33128;51.580;5.170;2024-03-02T06:04:42;11.70;99.90
47382;DHT22;33128;51.580;5.170;2024-03-02T06:07:08;11.70;99.90
47382;DHT22;33128;51.580;5.170;2024-03-02T06:09:34;11.70;99.90
47382;DHT22;33128;51.580;5.170;2024-03-02T06:11:59;11.70;99.90
47382;DHT22;33128;51.580;5.170;2024-03-02T06:14:25;11.60;99.90
47382;DHT22;33128;51.580;5.170;2024-03-02T06:16:54;11.60;99.90
47382;DHT22;33128;51.580;5.170;2024-03-02T06:19:19;11.60;99.90
47382;DHT22;33128;51.580;5.170;2024-03-02T06:21:45;11.60;99.90
47382;DHT22;33128;51.580;5.170;2024-03-02T06:24:10;11.70;99.90
47382;DHT22;33128;51.580;5.170;2024-03-02T06:26:36;11.70;99.90
47382;DHT22;33128;51.580;5.170;2024-03-02T06:29:01;11.70;99.90
47382;DHT22;33128;51.580;5.170;2024-03-02T06:31:28;11.70;99.90
47382;DHT22;33128;51.580;5.170;2024-03-02T06:33:53;11.70;99.90
47382;DHT22;33128;51.580;5.170;2024-03-02T06:36:19;11.70;99.90
47382;DHT22;33128;51.580;5.170;2024-03-02T06:38:44;11.70;99.90
47382;DHT22;33128;51.580;5.170;2024-03-02T06:41:10;11.70;99.90
47382;DHT22;33128;51.580;5.170;2024-03-02T06:43:36;11.70;99.90
47382;DHT22;33128;51.580;5.170;2024-03-02T06:46:01;11.20;99.90
47382;DHT22;33128;51.580;5.170;2024-03-02T06:48:27;10.90;99.90
47382;DHT22;33128;51.580;5.170;2024-03-02T06:50:55;11.10;99.90
47382;DHT22;33128;51.580;5.170;2024-03-02T06:53:21;11.30;99.90
47382;DHT22;33128;51.580;5.170;2024-03-02T06:55:47;11.40;99.90
47382;DHT22;33128;51.580;5.170;2024-03-02T06:58:15;11.50;99.90
47382;DHT22;33128;51.580;5.170;2024-03-02T07:00:50;11.50;99.90
47382;DHT22;33128;51.580;5.170;2024-03-02T07:03:18;11.60;99.90
47382;DHT22;33128;51.580;5.170;2024-03-02T07:05:43;11.70;99.90
47382;DHT22;33128;51.580;5.170;2024-03-02T07:08:09;11.70;99.90
47382;DHT22;33128;51.580;5.170;2024-03-02T07:10:34;11.70;99.90
47382;DHT22;33128;51.580;5.170;2024-03-02T07:13:00;11.80;99.90
47382;DHT22;33128;51.580;5.170;2024-03-02T07:15:26;11.80;99.90
47382;DHT22;33128;51.580;5.170;2024-03-02T07:17:51;11.80;99.90
47382;DHT22;33128;51.580;5.170;2024-03-02T07:20:17;11.80;99.90
47382;DHT22;33128;51.580;5.170;2024-03-02T07:22:43;11.90;99.90
47382;DHT22;33128;51.580;5.170;2024-03-02T07:25:08;11.80;99.90
47382;DHT22;33128;51.580;5.170;2024-03-02T07:27:34;11.80;99.90
47382;DHT22;33128;51.580;5.170;2024-03-02T07:30:05;11.90;99.90
47382;DHT22;33128;51.580;5.170;2024-03-02T07:32:30;11.90;99.90
47382;DHT22;33128;51.580;5.170;2024-03-02T07:34:56;11.80;99.90
47382;DHT22;33128;51.580;5.170;2024-03-02T07:37:23;11.90;99.90
47382;DHT22;33128;51.580;5.170;2024-03-02T07:39:48;11.80;99.90
47382;DHT22;33128;51.580;5.170;2024-03-02T07:42:17;11.90;99.90
47382;DHT22;33128;51.580;5.170;2024-03-02T07:44:46;11.80;99.90
47382;DHT22;33128;51.580;5.170;2024-03-02T07:47:11;11.90;99.90
47382;DHT22;33128;51.580;5.170;2024-03-02T07:49:37;11.90;99.90
47382;DHT22;33128;51.580;5.170;2024-03-02T07:52:03;12.00;99.90
47382;DHT22;33128;51.580;5.170;2024-03-02T07:54:29;12.00;99.90
47382;DHT22;33128;51.580;5.170;2024-03-02T07:56:55;12.00;99.90
47382;DHT22;33128;51.580;5.170;2024-03-02T07:59:20;12.00;99.90
47382;DHT22;33128;51.580;5.170;2024-03-02T08:01:49;12.00;99.90
47382;DHT22;33128;51.580;5.170;2024-03-02T08:04:14;12.00;99.90
47382;DHT22;33128;51.580;5.170;2024-03-02T08:06:40;11.90;99.90
47382;DHT22;33128;51.580;5.170;2024-03-02T08:09:05;11.90;99.90
47382;DHT22;33128;51.580;5.170;2024-03-02T08:11:35;11.90;99.90
47382;DHT22;33128;51.580;5.170;2024-03-02T08:14:00;12.00;99.90
47382;DHT22;33128;51.580;5.170;2024-03-02T08:16:26;12.00;99.90
47382;DHT22;33128;51.580;5.170;2024-03-02T08:18:52;12.00;99.90
47382;DHT22;33128;51.580;5.170;2024-03-02T08:21:21;12.00;99.90
47382;DHT22;33128;51.580;5.170;2024-03-02T08:23:46;12.00;99.90
47382;DHT22;33128;51.580;5.170;2024-03-02T08:26:12;12.00;99.90
47382;DHT22;33128;51.580;5.170;2024-03-02T08:28:37;12.00;99.90
47382;DHT22;33128;51.580;5.170;2024-03-02T08:31:09;12.00;99.90
47382;DHT22;33128;51.580;5.170;2024-03-02T08:33:35;12.10;99.90
47382;DHT22;33128;51.580;5.170;2024-03-02T08:36:00;12.10;99.90
47382;DHT22;33128;51.580;5.170;2024-03-02T08:38:26;12.10;99.90
47382;DHT22;33128;51.580;5.170;2024-03-02T08:40:52;12.10;99.90
47382;DHT22;33128;51.580;5.170;2024-03-02T08:43:23;12.20;99.90
47382;DHT22;33128;51.580;5.170;2024-03-02T08:45:53;12.10;99.90
47382;DHT22;33128;51.580;5.170;2024-03-02T08:48:21;12.20;99.90
47382;DHT22;33128;51.580;5.170;2024-03-02T08:50:50;12.10;99.90
47382;DHT22;33128;51.580;5.170;2024-03-02T08:53:19;12.20;99.90
47382;DHT22;33128;51.580;5.170;2024-03-02T08:55:47;12.20;99.90
47382;DHT22;33128;51.580;5.170;2024-03-02T08:58:13;12.20;99.90
47382;DHT22;33128;51.580;5.170;2024-03-02T09:00:39;12.20;99.90
47382;DHT22;33128;51.580;5.170;2024-03-02T09:03:04;12.20;99.90
47382;DHT22;33128;51.580;5.170;2024-03-02T09:05:30;12.30;99.90
47382;DHT22;33128;51.580;5.170;2024-03-02T09:07:56;12.30;99.90
47382;DHT22;33128;51.580;5.170;2024-03-02T09:10:21;12.30;99.90
47382;DHT22;33128;51.580;5.170;2024-03-02T09:12:47;12.40;99.90
47382;DHT22;33128;51.580;5.170;2024-03-02T09:15:12;12.40;99.90
47382;DHT22;33128;51.580;5.170;2024-03-02T09:17:38;12.40;99.90
47382;DHT22;33128;51.580;5.170;2024-03-02T09:20:05;12.40;99.90
47382;DHT22;33128;51.580;5.170;2024-03-02T09:22:30;12.40;99.90
47382;DHT22;33128;51.580;5.170;2024-03-02T09:24:57;12.50;99.90
47382;DHT22;33128;51.580;5.170;2024-03-02T09:27:23;12.50;99.90
47382;DHT22;33128;51.580;5.170;2024-03-02T09:29:49;12.50;99.90
47382;DHT22;33128;51.580;5.170;2024-03-02T09:32:14;12.50;99.90
47382;DHT22;33128;51.580;5.170;2024-03-02T09:34:41;12.50;99.90
47382;DHT22;33128;51.580;5.170;2024-03-02T09:37:07;12.50;99.90
47382;DHT22;33128;51.580;5.170;2024-03-02T09:39:36;12.50;99.90
47382;DHT22;33128;51.580;5.170;2024-03-02T09:42:05;12.50;99.90
47382;DHT22;33128;51.580;5.170;2024-03-02T09:44:31;12.50;99.90
47382;DHT22;33128;51.580;5.170;2024-03-02T09:46:57;12.50;99.90
47382;DHT22;33128;51.580;5.170;2024-03-02T09:49:22;12.60;99.90
47382;DHT22;33128;51.580;5.170;2024-03-02T09:51:48;12.60;99.90
47382;DHT22;33128;51.580;5.170;2024-03-02T09:54:15;12.60;99.90
47382;DHT22;33128;51.580;5.170;2024-03-02T09:56:44;12.50;99.90
47382;DHT22;33128;51.580;5.170;2024-03-02T09:59:10;12.60;99.90
47382;DHT22;33128;51.580;5.170;2024-03-02T10:01:35;12.60;99.90
47382;DHT22;33128;51.580;5.170;2024-03-02T10:04:01;12.70;99.90
47382;DHT22;33128;51.580;5.170;2024-03-02T10:06:28;12.60;99.90
47382;DHT22;33128;51.580;5.170;2024-03-02T10:08:55;12.70;99.90
47382;DHT22;33128;51.580;5.170;2024-03-02T10:11:31;12.70;99.90
47382;DHT22;33128;51.580;5.170;2024-03-02T10:14:11;12.70;99.90
47382;DHT22;33128;51.580;5.170;2024-03-02T10:16:42;12.70;99.90
47382;DHT22;33128;51.580;5.170;2024-03-02T10:21:48;12.70;99.90
47382;DHT22;33128;51.580;5.170;2024-03-02T10:24:15;12.80;99.90
47382;DHT22;33128;51.580;5.170;2024-03-02T10:26:40;12.80;99.90
47382;DHT22;33128;51.580;5.170;2024-03-02T10:29:08;12.80;99.90
47382;DHT22;33128;51.580;5.170;2024-03-02T10:31:34;12.80;99.90
47382;DHT22;33128;51.580;5.170;2024-03-02T10:34:00;12.90;99.90
47382;DHT22;33128;51.580;5.170;2024-03-02T10:36:28;13.00;99.90
47382;DHT22;33128;51.580;5.170;2024-03-02T10:38:56;13.00;99.90
47382;DHT22;33128;51.580;5.170;2024-03-02T10:41:24;13.00;99.90
47382;DHT22;33128;51.580;5.170;2024-03-02T10:43:53;13.00;99.90
47382;DHT22;33128;51.580;5.170;2024-03-02T10:46:28;13.10;99.90
47382;DHT22;33128;51.580;5.170;2024-03-02T10:48:55;13.10;99.90
47382;DHT22;33128;51.580;5.170;2024-03-02T10:51:20;13.10;99.90
47382;DHT22;33128;51.580;5.170;2024-03-02T10:53:46;13.10;99.90
47382;DHT22;33128;51.580;5.170;2024-03-02T10:56:15;13.20;99.90
47382;DHT22;33128;51.580;5.170;2024-03-02T10:58:41;13.20;99.90
47382;DHT22;33128;51.580;5.170;2024-03-02T11:01:07;13.20;99.90
47382;DHT22;33128;51.580;5.170;2024-03-02T11:03:36;13.20;99.90
47382;DHT22;33128;51.580;5.170;2024-03-02T11:06:07;13.30;99.90
47382;DHT22;33128;51.580;5.170;2024-03-02T11:08:34;13.30;99.90
47382;DHT22;33128;51.580;5.170;2024-03-02T11:11:07;13.40;99.90
47382;DHT22;33128;51.580;5.170;2024-03-02T11:13:34;13.40;99.90
47382;DHT22;33128;51.580;5.170;2024-03-02T11:16:27;13.50;99.90
47382;DHT22;33128;51.580;5.170;2024-03-02T11:19:01;13.50;99.90
47382;DHT22;33128;51.580;5.170;2024-03-02T11:21:28;13.50;99.90
47382;DHT22;33128;51.580;5.170;2024-03-02T11:23:56;13.60;99.90
47382;DHT22;33128;51.580;5.170;2024-03-02T11:26:22;13.70;99.90
47382;DHT22;33128;51.580;5.170;2024-03-02T11:28:51;13.70;99.90
47382;DHT22;33128;51.580;5.170;2024-03-02T11:31:17;13.70;99.90
47382;DHT22;33128;51.580;5.170;2024-03-02T11:33:42;13.70;99.90
47382;DHT22;33128;51.580;5.170;2024-03-02T11:36:09;13.80;99.90
47382;DHT22;33128;51.580;5.170;2024-03-02T11:38:46;13.80;99.90
47382;DHT22;33128;51.580;5.170;2024-03-02T11:41:13;13.90;99.90
47382;DHT22;33128;51.580;5.170;2024-03-02T11:43:39;13.90;99.90
47382;DHT22;33128;51.580;5.170;2024-03-02T11:46:05;13.80;99.90
47382;DHT22;33128;51.580;5.170;2024-03-02T11:48:36;14.00;99.90
47382;DHT22;33128;51.580;5.170;2024-03-02T11:51:02;14.10;99.90
47382;DHT22;33128;51.580;5.170;2024-03-02T11:53:28;14.10;99.90
47382;DHT22;33128;51.580;5.170;2024-03-02T11:55:55;14.20;99.90
47382;DHT22;33128;51.580;5.170;2024-03-02T11:58:21;14.20;99.90
47382;DHT22;33128;51.580;5.170;2024-03-02T12:00:53;14.20;99.90
47382;DHT22;33128;51.580;5.170;2024-03-02T12:03:24;14.30;99.90
47382;DHT22;33128;51.580;5.170;2024-03-02T12:05:54;14.30;99.90
47382;DHT22;33128;51.580;5.170;2024-03-02T12:08:20;14.30;99.90
47382;DHT22;33128;51.580;5.170;2024-03-02T12:10:57;14.30;99.90
47382;DHT22;33128;51.580;5.170;2024-03-02T12:13:23;14.40;99.90
47382;DHT22;33128;51.580;5.170;2024-03-02T12:15:53;14.50;99.90
47382;DHT22;33128;51.580;5.170;2024-03-02T12:18:20;14.60;99.90
47382;DHT22;33128;51.580;5.170;2024-03-02T12:20:46;14.60;99.90
47382;DHT22;33128;51.580;5.170;2024-03-02T12:23:14;14.60;99.90
47382;DHT22;33128;51.580;5.170;2024-03-02T12:25:41;14.70;99.90
47382;DHT22;33128;51.580;5.170;2024-03-02T12:28:07;14.80;99.90
47382;DHT22;33128;51.580;5.170;2024-03-02T12:30:35;14.80;99.90
47382;DHT22;33128;51.580;5.170;2024-03-02T12:33:07;14.90;99.90
47382;DHT22;33128;51.580;5.170;2024-03-02T12:35:33;14.80;99.90
47382;DHT22;33128;51.580;5.170;2024-03-02T12:38:01;14.80;99.90
47382;DHT22;33128;51.580;5.170;2024-03-02T12:40:27;14.80;99.90
47382;DHT22;33128;51.580;5.170;2024-03-02T12:42:55;14.80;99.90
47382;DHT22;33128;51.580;5.170;2024-03-02T12:45:21;14.90;99.90
47382;DHT22;33128;51.580;5.170;2024-03-02T12:47:50;14.80;99.90
47382;DHT22;33128;51.580;5.170;2024-03-02T12:50:20;15.00;99.90
47382;DHT22;33128;51.580;5.170;2024-03-02T12:52:54;15.10;99.90
47382;DHT22;33128;51.580;5.170;2024-03-02T12:55:21;15.20;99.90
47382;DHT22;33128;51.580;5.170;2024-03-02T12:57:47;15.30;99.90
47382;DHT22;33128;51.580;5.170;2024-03-02T13:00:14;15.30;99.90
47382;DHT22;33128;51.580;5.170;2024-03-02T13:02:41;15.30;99.90
47382;DHT22;33128;51.580;5.170;2024-03-02T13:05:07;15.40;99.90
47382;DHT22;33128;51.580;5.170;2024-03-02T13:07:37;15.40;99.90
47382;DHT22;33128;51.580;5.170;2024-03-02T13:10:03;15.40;99.90
47382;DHT22;33128;51.580;5.170;2024-03-02T13:12:30;15.40;99.90
47382;DHT22;33128;51.580;5.170;2024-03-02T13:14:58;15.50;99.90
47382;DHT22;33128;51.580;5.170;2024-03-02T13:17:23;15.50;99.90
47382;DHT22;33128;51.580;5.170;2024-03-02T13:19:56;15.60;99.90
47382;DHT22;33128;51.580;5.170;2024-03-02T13:22:25;15.60;99.90
47382;DHT22;33128;51.580;5.170;2024-03-02T13:24:52;15.70;99.90
47382;DHT22;33128;51.580;5.170;2024-03-02T13:27:22;15.70;99.90
47382;DHT22;33128;51.580;5.170;2024-03-02T13:29:48;15.70;99.90
47382;DHT22;33128;51.580;5.170;2024-03-02T13:32:15;15.70;99.90
47382;DHT22;33128;51.580;5.170;2024-03-02T13:34:40;15.80;99.90
47382;DHT22;33128;51.580;5.170;2024-03-02T13:37:09;15.80;99.90
47382;DHT22;33128;51.580;5.170;2024-03-02T13:39:35;15.80;99.90
47382;DHT22;33128;51.580;5.170;2024-03-02T13:42:14;15.70;99.90
47382;DHT22;33128;51.580;5.170;2024-03-02T13:44:41;15.70;99.90
47382;DHT22;33128;51.580;5.170;2024-03-02T13:47:08;15.70;99.90
47382;DHT22;33128;51.580;5.170;2024-03-02T13:49:34;15.70;99.90
47382;DHT22;33128;51.580;5.170;2024-03-02T13:52:03;15.70;99.90
47382;DHT22;33128;51.580;5.170;2024-03-02T13:54:30;15.70;99.90
47382;DHT22;33128;51.580;5.170;2024-03-02T13:56:56;15.70;99.90
47382;DHT22;33128;51.580;5.170;2024-03-02T13:59:23;15.80;99.90
47382;DHT22;33128;51.580;5.170;2024-03-02T14:01:49;15.90;99.90
47382;DHT22;33128;51.580;5.170;2024-03-02T14:04:15;16.00;99.90
47382;DHT22;33128;51.580;5.170;2024-03-02T14:06:44;16.00;99.90
47382;DHT22;33128;51.580;5.170;2024-03-02T14:09:12;16.00;99.90
47382;DHT22;33128;51.580;5.170;2024-03-02T14:11:38;16.10;99.90
47382;DHT22;33128;51.580;5.170;2024-03-02T14:14:04;16.10;99.90
47382;DHT22;33128;51.580;5.170;2024-03-02T14:16:29;16.10;99.90
47382;DHT22;33128;51.580;5.170;2024-03-02T14:18:55;16.10;99.90
47382;DHT22;33128;51.580;5.170;2024-03-02T14:21:24;16.10;99.90
47382;DHT22;33128;51.580;5.170;2024-03-02T14:23:50;16.00;99.90
47382;DHT22;33128;51.580;5.170;2024-03-02T14:26:15;16.00;99.90
47382;DHT22;33128;51.580;5.170;2024-03-02T14:28:43;16.00;99.90
47382;DHT22;33128;51.580;5.170;2024-03-02T14:31:09;16.10;99.90
47382;DHT22;33128;51.580;5.170;2024-03-02T14:33:34;16.00;99.90
47382;DHT22;33128;51.580;5.170;2024-03-02T14:36:01;16.00;99.90
47382;DHT22;33128;51.580;5.170;2024-03-02T14:38:26;16.10;99.90
47382;DHT22;33128;51.580;5.170;2024-03-02T14:40:52;16.20;99.90
47382;DHT22;33128;51.580;5.170;2024-03-02T14:43:17;16.40;99.90
47382;DHT22;33128;51.580;5.170;2024-03-02T14:45:43;16.50;99.90
47382;DHT22;33128;51.580;5.170;2024-03-02T14:48:12;16.50;99.90
47382;DHT22;33128;51.580;5.170;2024-03-02T14:50:37;16.50;99.90
47382;DHT22;33128;51.580;5.170;2024-03-02T14:53:04;16.40;99.90
47382;DHT22;33128;51.580;5.170;2024-03-02T14:55:35;16.40;99.90
47382;DHT22;33128;51.580;5.170;2024-03-02T14:58:01;16.40;99.90
47382;DHT22;33128;51.580;5.170;2024-03-02T15:00:27;16.40;99.90
47382;DHT22;33128;51.580;5.170;2024-03-02T15:02:55;16.40;99.90
47382;DHT22;33128;51.580;5.170;2024-03-02T15:05:21;16.40;99.90
47382;DHT22;33128;51.580;5.170;2024-03-02T15:07:49;16.30;99.90
47382;DHT22;33128;51.580;5.170;2024-03-02T15:10:17;16.30;99.90
47382;DHT22;33128;51.580;5.170;2024-03-02T15:12:43;16.30;99.90
47382;DHT22;33128;51.580;5.170;2024-03-02T15:15:09;16.30;99.90
47382;DHT22;33128;51.580;5.170;2024-03-02T15:17:37;16.30;99.90
47382;DHT22;33128;51.580;5.170;2024-03-02T15:20:03;16.30;99.90
47382;DHT22;33128;51.580;5.170;2024-03-02T15:22:30;16.40;99.90
47382;DHT22;33128;51.580;5.170;2024-03-02T15:24:55;16.30;99.90
47382;DHT22;33128;51.580;5.170;2024-03-02T15:27:21;16.30;99.90
47382;DHT22;33128;51.580;5.170;2024-03-02T15:29:46;16.30;99.90
47382;DHT22;33128;51.580;5.170;2024-03-02T15:32:13;16.40;99.90
47382;DHT22;33128;51.580;5.170;2024-03-02T15:34:39;16.40;99.90